sensor_id;sensor_type;location;lat;lon;timestamp;temperature;humidity
1994;DHT22;998;49.906;10.908;2023-07-29T00:00:46;19.50;99.90
1994;DHT22;998;49.906;10.908;2023-07-29T00:03:14;19.50;99.90
1994;DHT22;998;49.906;10.908;2023-07-29T00:05:41;19.40;99.90
1994;DHT22;998;49.906;10.908;2023-07-29T00:08:08;19.40;99.90
1994;DHT22;998;49.906;10.908;2023-07-29T00:10:38;19.40;99.90
1994;DHT22;998;49.906;10.908;2023-07-29T00:13:05;19.40;99.90
1994;DHT22;998;49.906;10.908;2023-07-29T00:15:32;19.40;99.90
1994;DHT22;998;49.906;10.908;2023-07-29T00:18:00;19.40;99.90
1994;DHT22;998;49.906;10.908;2023-07-29T00:20:27;19.40;99.90
1994;DHT22;998;49.906;10.908;2023-07-29T00:22:54;19.40;99.90
1994;DHT22;998;49.906;10.908;2023-07-29T00:25:24;19.40;99.90
1994;DHT22;998;49.906;10.908;2023-07-29T00:27:55;19.40;99.90
1994;DHT22;998;49.906;10.908;2023-07-29T00:30:22;19.40;99.90
1994;DHT22;998;49.906;10.908;2023-07-29T00:32:50;19.40;99.90
1994;DHT22;998;49.906;10.908;2023-07-29T00:35:17;19.40;99.90
1994;DHT22;998;49.906;10.908;2023-07-29T00:37:45;19.40;99.90
1994;DHT22;998;49.906;10.908;2023-07-29T00:40:15;19.40;99.90
1994;DHT22;998;49.906;10.908;2023-07-29T00:42:44;19.40;99.90
1994;DHT22;998;49.906;10.908;2023-07-29T00:45:13;19.30;99.90
1994;DHT22;998;49.906;10.908;2023-07-29T00:47:41;19.30;99.90
1994;DHT22;998;49.906;10.908;2023-07-29T00:50:12;19.20;99.90
1994;DHT22;998;49.906;10.908;2023-07-29T00:52:39;19.20;99.90
1994;DHT22;998;49.906;10.908;2023-07-29T00:55:08;19.20;99.90
1994;DHT22;998;49.906;10.908;2023-07-29T00:57:37;19.20;99.90
1994;DHT22;998;49.906;10.908;2023-07-29T01:00:06;19.20;99.90
1994;DHT22;998;49.906;10.908;2023-07-29T01:02:35;19.20;99.90
1994;DHT22;998;49.906;10.908;2023-07-29T01:05:03;19.20;99.90
1994;DHT22;998;49.906;10.908;2023-07-29T01:07:36;19.20;99.90
1994;DHT22;998;49.906;10.908;2023-07-29T01:10:10;19.20;99.90
1994;DHT22;998;49.906;10.908;2023-07-29T01:12:49;19.20;99.90
1994;DHT22;998;49.906;10.908;2023-07-29T01:15:23;19.20;99.90
1994;DHT22;998;49.906;10.908;2023-07-29T01:17:56;19.20;99.90
1994;DHT22;998;49.906;10.908;2023-07-29T01:20:25;19.20;99.90
1994;DHT22;998;49.906;10.908;2023-07-29T01:22:53;19.20;99.90
1994;DHT22;998;49.906;10.908;2023-07-29T01:25:22;19.20;99.90
1994;DHT22;998;49.906;10.908;2023-07-29T01:27:49;19.10;99.90
1994;DHT22;998;49.906;10.908;2023-07-29T01:30:19;19.00;99.90
1994;DHT22;998;49.906;10.908;2023-07-29T01:32:54;19.00;99.90
1994;DHT22;998;49.906;10.908;2023-07-29T01:35:26;19.10;99.90
1994;DHT22;998;49.906;10.908;2023-07-29T01:37:56;19.00;99.90
1994;DHT22;998;49.906;10.908;2023-07-29T01:40:27;19.00;99.90
1994;DHT22;998;49.906;10.908;2023-07-29T01:42:55;19.00;99.90
1994;DHT22;998;49.906;10.908;2023-07-29T01:45:25;19.00;99.90
1994;DHT22;998;49.906;10.908;2023-07-29T01:47:52;19.00;99.90
1994;DHT22;998;49.906;10.908;2023-07-29T01:50:20;18.90;99.90
1994;DHT22;998;49.906;10.908;2023-07-29T01:52:47;18.90;99.90
1994;DHT22;998;49.906;10.908;2023-07-29T01:55:15;18.90;99.90
1994;DHT22;998;49.906;10.908;2023-07-29T01:57:44;19.00;99.90
1994;DHT22;998;49.906;10.908;2023-07-29T02:00:11;19.00;99.90
1994;DHT22;998;49.906;10.908;2023-07-29T02:02:38;19.00;99.90
1994;DHT22;998;49.906;10.908;2023-07-29T02:05:06;19.00;99.90
1994;DHT22;998;49.906;10.908;2023-07-29T02:07:34;19.00;99.90
1994;DHT22;998;49.906;10.908;2023-07-29T02:10:01;19.00;99.90
1994;DHT22;998;49.906;10.908;2023-07-29T02:12:28;19.00;99.90
1994;DHT22;998;49.906;10.908;2023-07-29T02:14:56;19.00;99.90
1994;DHT22;998;49.906;10.908;2023-07-29T02:17:24;19.10;99.90
1994;DHT22;998;49.906;10.908;2023-07-29T02:19:52;19.00;99.90
1994;DHT22;998;49.906;10.908;2023-07-29T02:22:19;19.10;99.90
1994;DHT22;998;49.906;10.908;2023-07-29T02:24:46;19.10;99.90
1994;DHT22;998;49.906;10.908;2023-07-29T02:27:14;19.00;99.90
1994;DHT22;998;49.906;10.908;2023-07-29T02:29:41;19.10;99.90
1994;DHT22;998;49.906;10.908;2023-07-29T02:32:10;19.10;99.90
1994;DHT22;998;49.906;10.908;2023-07-29T02:34:37;19.00;99.90
1994;DHT22;998;49.906;10.908;2023-07-29T02:37:05;19.00;99.90
1994;DHT22;998;49.906;10.908;2023-07-29T02:39:32;18.90;99.90
1994;DHT22;998;49.906;10.908;2023-07-29T02:41:59;18.90;99.90
1994;DHT22;998;49.906;10.908;2023-07-29T02:44:27;18.80;99.90
1994;DHT22;998;49.906;10.908;2023-07-29T02:46:54;18.80;99.90
1994;DHT22;998;49.906;10.908;2023-07-29T02:49:23;18.80;99.90
1994;DHT22;998;49.906;10.908;2023-07-29T02:51:51;18.80;99.90
1994;DHT22;998;49.906;10.908;2023-07-29T02:54:18;18.90;99.90
1994;DHT22;998;49.906;10.908;2023-07-29T02:56:45;18.90;99.90
1994;DHT22;998;49.906;10.908;2023-07-29T02:59:13;18.90;99.90
1994;DHT22;998;49.906;10.908;2023-07-29T03:01:40;18.80;99.90
1994;DHT22;998;49.906;10.908;2023-07-29T03:04:07;18.80;99.90
1994;DHT22;998;49.906;10.908;2023-07-29T03:06:36;18.80;99.90
1994;DHT22;998;49.906;10.908;2023-07-29T03:09:03;18.70;99.90
1994;DHT22;998;49.906;10.908;2023-07-29T03:11:31;18.80;99.90
1994;DHT22;998;49.906;10.908;2023-07-29T03:13:58;18.80;99.90
1994;DHT22;998;49.906;10.908;2023-07-29T03:16:26;18.80;99.90
1994;DHT22;998;49.906;10.908;2023-07-29T03:18:53;18.80;99.90
1994;DHT22;998;49.906;10.908;2023-07-29T03:21:21;18.80;99.90
1994;DHT22;998;49.906;10.908;2023-07-29T03:23:50;18.80;99.90
1994;DHT22;998;49.906;10.908;2023-07-29T03:26:17;18.80;99.90
1994;DHT22;998;49.906;10.908;2023-07-29T03:28:45;18.80;99.90
1994;DHT22;998;49.906;10.908;2023-07-29T03:31:12;18.80;99.90
1994;DHT22;998;49.906;10.908;2023-07-29T03:33:39;18.70;99.90
1994;DHT22;998;49.906;10.908;2023-07-29T03:36:07;18.70;99.90
1994;DHT22;998;49.906;10.908;2023-07-29T03:38:34;18.70;99.90
1994;DHT22;998;49.906;10.908;2023-07-29T03:41:07;18.70;99.90
1994;DHT22;998;49.906;10.908;2023-07-29T03:43:34;18.70;99.90
1994;DHT22;998;49.906;10.908;2023-07-29T03:46:02;19.30;99.90
1994;DHT22;998;49.906;10.908;2023-07-29T03:48:29;18.60;99.90
1994;DHT22;998;49.906;10.908;2023-07-29T03:50:57;18.60;99.90
1994;DHT22;998;49.906;10.908;2023-07-29T03:53:24;18.60;99.90
1994;DHT22;998;49.906;10.908;2023-07-29T03:55:52;18.60;99.90
1994;DHT22;998;49.906;10.908;2023-07-29T03:58:20;18.60;99.90
1994;DHT22;998;49.906;10.908;2023-07-29T04:00:48;18.60;99.90
1994;DHT22;998;49.906;10.908;2023-07-29T04:03:15;18.60;99.90
1994;DHT22;998;49.906;10.908;2023-07-29T04:05:43;18.60;99.90
1994;DHT22;998;49.906;10.908;2023-07-29T04:08:10;18.60;99.90
1994;DHT22;998;49.906;10.908;2023-07-29T04:10:37;18.60;99.90
1994;DHT22;998;49.906;10.908;2023-07-29T04:13:05;18.60;99.90
1994;DHT22;998;49.906;10.908;2023-07-29T04:15:33;18.50;99.90
1994;DHT22;998;49.906;10.908;2023-07-29T04:18:00;18.50;99.90
1994;DHT22;998;49.906;10.908;2023-07-29T04:20:28;18.50;99.90
1994;DHT22;998;49.906;10.908;2023-07-29T04:22:56;18.50;99.90
1994;DHT22;998;49.906;10.908;2023-07-29T04:25:23;18.50;99.90
1994;DHT22;998;49.906;10.908;2023-07-29T04:27:51;18.50;99.90
1994;DHT22;998;49.906;10.908;2023-07-29T04:30:18;18.50;99.90
1994;DHT22;998;49.906;10.908;2023-07-29T04:32:47;18.50;99.90
1994;DHT22;998;49.906;10.908;2023-07-29T04:35:15;18.50;99.90
1994;DHT22;998;49.906;10.908;2023-07-29T04:37:42;18.50;99.90
1994;DHT22;998;49.906;10.908;2023-07-29T04:40:10;18.50;99.90
1994;DHT22;998;49.906;10.908;2023-07-29T04:42:37;18.50;99.90
1994;DHT22;998;49.906;10.908;2023-07-29T04:45:05;18.50;99.90
1994;DHT22;998;49.906;10.908;2023-07-29T04:47:33;18.60;99.90
1994;DHT22;998;49.906;10.908;2023-07-29T04:50:02;18.60;99.90
1994;DHT22;998;49.906;10.908;2023-07-29T04:52:29;18.60;99.90
1994;DHT22;998;49.906;10.908;2023-07-29T04:54:57;18.60;99.90
1994;DHT22;998;49.906;10.908;2023-07-29T04:57:24;18.50;99.90
1994;DHT22;998;49.906;10.908;2023-07-29T04:59:51;18.50;99.90
1994;DHT22;998;49.906;10.908;2023-07-29T05:02:19;18.50;99.90
1994;DHT22;998;49.906;10.908;2023-07-29T05:04:46;18.50;99.90
1994;DHT22;998;49.906;10.908;2023-07-29T05:07:15;18.50;99.90
1994;DHT22;998;49.906;10.908;2023-07-29T05:09:43;18.50;99.90
1994;DHT22;998;49.906;10.908;2023-07-29T05:12:10;18.50;99.90
1994;DHT22;998;49.906;10.908;2023-07-29T05:14:37;18.50;99.90
1994;DHT22;998;49.906;10.908;2023-07-29T05:17:05;18.50;99.90
1994;DHT22;998;49.906;10.908;2023-07-29T05:19:33;18.60;99.90
1994;DHT22;998;49.906;10.908;2023-07-29T05:22:00;18.60;99.90
1994;DHT22;998;49.906;10.908;2023-07-29T05:24:29;18.70;99.90
1994;DHT22;998;49.906;10.908;2023-07-29T05:26:56;18.70;99.90
1994;DHT22;998;49.906;10.908;2023-07-29T05:29:23;18.70;99.90
1994;DHT22;998;49.906;10.908;2023-07-29T05:31:51;18.70;99.90
1994;DHT22;998;49.906;10.908;2023-07-29T05:34:19;18.70;99.90
1994;DHT22;998;49.906;10.908;2023-07-29T05:36:46;18.80;99.90
1994;DHT22;998;49.906;10.908;2023-07-29T05:39:13;18.70;99.90
1994;DHT22;998;49.906;10.908;2023-07-29T05:41:42;18.70;99.90
1994;DHT22;998;49.906;10.908;2023-07-29T05:44:10;18.70;99.90
1994;DHT22;998;49.906;10.908;2023-07-29T05:46:37;18.70;99.90
1994;DHT22;998;49.906;10.908;2023-07-29T05:49:04;18.70;99.90
1994;DHT22;998;49.906;10.908;2023-07-29T05:51:32;18.80;99.90
1994;DHT22;998;49.906;10.908;2023-07-29T05:53:59;18.80;99.90
1994;DHT22;998;49.906;10.908;2023-07-29T05:56:27;18.70;99.90
1994;DHT22;998;49.906;10.908;2023-07-29T05:58:55;18.70;99.90
1994;DHT22;998;49.906;10.908;2023-07-29T06:01:23;18.80;99.90
1994;DHT22;998;49.906;10.908;2023-07-29T06:03:50;18.80;99.90
1994;DHT22;998;49.906;10.908;2023-07-29T06:06:17;18.80;99.90
1994;DHT22;998;49.906;10.908;2023-07-29T06:08:45;18.80;99.90
1994;DHT22;998;49.906;10.908;2023-07-29T06:11:12;18.80;99.90
1994;DHT22;998;49.906;10.908;2023-07-29T06:13:39;18.80;99.90
1994;DHT22;998;49.906;10.908;2023-07-29T06:16:08;19.10;99.90
1994;DHT22;998;49.906;10.908;2023-07-29T06:18:36;18.80;99.90
1994;DHT22;998;49.906;10.908;2023-07-29T06:21:03;18.70;99.90
1994;DHT22;998;49.906;10.908;2023-07-29T06:23:33;18.70;99.90
1994;DHT22;998;49.906;10.908;2023-07-29T06:26:00;18.70;99.90
1994;DHT22;998;49.906;10.908;2023-07-29T06:28:28;18.70;99.90
1994;DHT22;998;49.906;10.908;2023-07-29T06:30:55;18.70;99.90
1994;DHT22;998;49.906;10.908;2023-07-29T06:33:24;18.70;99.90
1994;DHT22;998;49.906;10.908;2023-07-29T06:35:51;18.70;99.90
1994;DHT22;998;49.906;10.908;2023-07-29T06:38:18;18.70;99.90
1994;DHT22;998;49.906;10.908;2023-07-29T06:40:47;18.70;99.90
1994;DHT22;998;49.906;10.908;2023-07-29T06:43:15;18.70;99.90
1994;DHT22;998;49.906;10.908;2023-07-29T06:45:42;18.70;99.90
1994;DHT22;998;49.906;10.908;2023-07-29T06:48:10;18.70;99.90
1994;DHT22;998;49.906;10.908;2023-07-29T06:50:39;18.70;99.90
1994;DHT22;998;49.906;10.908;2023-07-29T06:53:06;18.70;99.90
1994;DHT22;998;49.906;10.908;2023-07-29T06:55:34;18.80;99.90
1994;DHT22;998;49.906;10.908;2023-07-29T06:58:01;18.80;99.90
1994;DHT22;998;49.906;10.908;2023-07-29T07:00:29;18.70;99.90
1994;DHT22;998;49.906;10.908;2023-07-29T07:02:56;18.60;99.90
1994;DHT22;998;49.906;10.908;2023-07-29T07:05:23;18.60;99.90
1994;DHT22;998;49.906;10.908;2023-07-29T07:07:52;18.60;99.90
1994;DHT22;998;49.906;10.908;2023-07-29T07:10:19;18.60;99.90
1994;DHT22;998;49.906;10.908;2023-07-29T07:12:47;18.50;99.90
1994;DHT22;998;49.906;10.908;2023-07-29T07:15:14;18.50;99.90
1994;DHT22;998;49.906;10.908;2023-07-29T07:17:42;18.50;99.90
1994;DHT22;998;49.906;10.908;2023-07-29T07:20:10;18.50;99.90
1994;DHT22;998;49.906;10.908;2023-07-29T07:22:38;18.60;99.90
1994;DHT22;998;49.906;10.908;2023-07-29T07:25:08;18.60;99.90
1994;DHT22;998;49.906;10.908;2023-07-29T07:27:35;18.60;99.90
1994;DHT22;998;49.906;10.908;2023-07-29T07:30:02;18.60;99.90
1994;DHT22;998;49.906;10.908;2023-07-29T07:32:29;18.60;99.90
1994;DHT22;998;49.906;10.908;2023-07-29T07:34:56;18.70;99.90
1994;DHT22;998;49.906;10.908;2023-07-29T07:37:24;18.70;99.90
1994;DHT22;998;49.906;10.908;2023-07-29T07:39:51;18.80;99.90
1994;DHT22;998;49.906;10.908;2023-07-29T07:42:19;18.80;99.90
1994;DHT22;998;49.906;10.908;2023-07-29T07:44:47;18.80;99.90
1994;DHT22;998;49.906;10.908;2023-07-29T07:47:14;18.90;99.90
1994;DHT22;998;49.906;10.908;2023-07-29T07:49:41;19.00;99.90
1994;DHT22;998;49.906;10.908;2023-07-29T07:52:08;18.90;99.90
1994;DHT22;998;49.906;10.908;2023-07-29T07:54:35;18.90;99.90
1994;DHT22;998;49.906;10.908;2023-07-29T07:57:03;18.90;99.90
1994;DHT22;998;49.906;10.908;2023-07-29T07:59:32;19.00;99.90
1994;DHT22;998;49.906;10.908;2023-07-29T08:01:59;19.00;99.90
1994;DHT22;998;49.906;10.908;2023-07-29T08:04:27;19.00;99.90
1994;DHT22;998;49.906;10.908;2023-07-29T08:06:54;19.00;99.90
1994;DHT22;998;49.906;10.908;2023-07-29T08:09:22;19.00;99.90
1994;DHT22;998;49.906;10.908;2023-07-29T08:11:49;19.00;99.90
1994;DHT22;998;49.906;10.908;2023-07-29T08:14:16;19.00;99.90
1994;DHT22;998;49.906;10.908;2023-07-29T08:16:45;19.10;99.90
1994;DHT22;998;49.906;10.908;2023-07-29T08:19:13;19.10;99.90
1994;DHT22;998;49.906;10.908;2023-07-29T08:21:41;19.10;99.90
1994;DHT22;998;49.906;10.908;2023-07-29T08:24:08;19.20;99.90
1994;DHT22;998;49.906;10.908;2023-07-29T08:26:35;19.10;99.90
1994;DHT22;998;49.906;10.908;2023-07-29T08:29:02;19.10;99.90
1994;DHT22;998;49.906;10.908;2023-07-29T08:31:30;19.10;99.90
1994;DHT22;998;49.906;10.908;2023-07-29T08:34:00;19.10;99.90
1994;DHT22;998;49.906;10.908;2023-07-29T08:36:28;19.10;99.90
1994;DHT22;998;49.906;10.908;2023-07-29T08:38:56;19.10;99.90
1994;DHT22;998;49.906;10.908;2023-07-29T08:41:26;19.10;99.90
1994;DHT22;998;49.906;10.908;2023-07-29T08:44:01;19.10;99.90
1994;DHT22;998;49.906;10.908;2023-07-29T08:46:29;19.20;99.90
1994;DHT22;998;49.906;10.908;2023-07-29T08:48:57;19.10;99.90
1994;DHT22;998;49.906;10.908;2023-07-29T08:51:27;19.20;99.90
1994;DHT22;998;49.906;10.908;2023-07-29T08:53:55;19.20;99.90
1994;DHT22;998;49.906;10.908;2023-07-29T08:56:23;19.20;99.90
1994;DHT22;998;49.906;10.908;2023-07-29T08:58:51;19.20;99.90
1994;DHT22;998;49.906;10.908;2023-07-29T09:01:18;19.20;99.90
1994;DHT22;998;49.906;10.908;2023-07-29T09:03:46;19.30;99.90
1994;DHT22;998;49.906;10.908;2023-07-29T09:06:14;19.40;99.90
1994;DHT22;998;49.906;10.908;2023-07-29T09:08:43;19.40;99.90
1994;DHT22;998;49.906;10.908;2023-07-29T09:11:13;19.40;99.90
1994;DHT22;998;49.906;10.908;2023-07-29T09:13:42;19.50;99.90
1994;DHT22;998;49.906;10.908;2023-07-29T09:16:10;19.60;99.90
1994;DHT22;998;49.906;10.908;2023-07-29T09:18:37;19.60;99.90
1994;DHT22;998;49.906;10.908;2023-07-29T09:21:05;20.60;99.90
1994;DHT22;998;49.906;10.908;2023-07-29T09:23:39;19.60;99.90
1994;DHT22;998;49.906;10.908;2023-07-29T09:26:09;19.60;99.90
1994;DHT22;998;49.906;10.908;2023-07-29T09:28:37;19.70;99.90
1994;DHT22;998;49.906;10.908;2023-07-29T09:31:05;19.70;99.90
1994;DHT22;998;49.906;10.908;2023-07-29T09:33:33;19.70;99.90
1994;DHT22;998;49.906;10.908;2023-07-29T09:36:07;19.70;99.90
1994;DHT22;998;49.906;10.908;2023-07-29T09:38:35;19.70;99.90
1994;DHT22;998;49.906;10.908;2023-07-29T09:41:03;19.70;99.90
1994;DHT22;998;49.906;10.908;2023-07-29T09:43:33;19.70;99.90
1994;DHT22;998;49.906;10.908;2023-07-29T09:46:01;19.70;99.90
1994;DHT22;998;49.906;10.908;2023-07-29T09:48:32;19.70;99.90
1994;DHT22;998;49.906;10.908;2023-07-29T09:51:01;19.70;99.90
1994;DHT22;998;49.906;10.908;2023-07-29T09:53:39;19.80;99.90
1994;DHT22;998;49.906;10.908;2023-07-29T09:56:07;19.80;99.90
1994;DHT22;998;49.906;10.908;2023-07-29T09:58:36;19.90;99.90
1994;DHT22;998;49.906;10.908;2023-07-29T10:01:04;19.90;99.90
1994;DHT22;998;49.906;10.908;2023-07-29T10:03:31;19.90;99.90
1994;DHT22;998;49.906;10.908;2023-07-29T10:06:01;20.00;99.90
1994;DHT22;998;49.906;10.908;2023-07-29T10:08:29;20.10;99.90
1994;DHT22;998;49.906;10.908;2023-07-29T10:10:59;20.10;99.90
1994;DHT22;998;49.906;10.908;2023-07-29T10:13:27;20.10;99.90
1994;DHT22;998;49.906;10.908;2023-07-29T10:15:57;20.20;99.90
1994;DHT22;998;49.906;10.908;2023-07-29T10:18:24;20.30;99.90
1994;DHT22;998;49.906;10.908;2023-07-29T10:20:52;20.40;99.90
1994;DHT22;998;49.906;10.908;2023-07-29T10:23:22;20.50;99.90
1994;DHT22;998;49.906;10.908;2023-07-29T10:25:56;21.10;99.90
1994;DHT22;998;49.906;10.908;2023-07-29T10:28:26;20.60;99.90
1994;DHT22;998;49.906;10.908;2023-07-29T10:30:54;20.70;99.90
1994;DHT22;998;49.906;10.908;2023-07-29T10:33:23;20.70;99.90
1994;DHT22;998;49.906;10.908;2023-07-29T10:35:51;20.80;99.90
1994;DHT22;998;49.906;10.908;2023-07-29T10:38:19;20.80;99.90
1994;DHT22;998;49.906;10.908;2023-07-29T10:40:47;20.80;99.90
1994;DHT22;998;49.906;10.908;2023-07-29T10:43:19;20.80;99.90
1994;DHT22;998;49.906;10.908;2023-07-29T10:45:50;20.90;99.90
1994;DHT22;998;49.906;10.908;2023-07-29T10:48:42;20.90;99.90
1994;DHT22;998;49.906;10.908;2023-07-29T10:51:29;21.00;99.90
1994;DHT22;998;49.906;10.908;2023-07-29T10:54:00;21.00;99.90
1994;DHT22;998;49.906;10.908;2023-07-29T10:56:29;21.10;99.90
1994;DHT22;998;49.906;10.908;2023-07-29T10:58:57;21.20;99.90
1994;DHT22;998;49.906;10.908;2023-07-29T11:01:27;21.20;99.90
1994;DHT22;998;49.906;10.908;2023-07-29T11:04:24;21.30;99.90
1994;DHT22;998;49.906;10.908;2023-07-29T11:07:19;21.40;99.90
1994;DHT22;998;49.906;10.908;2023-07-29T11:09:54;21.60;99.90
1994;DHT22;998;49.906;10.908;2023-07-29T11:12:39;21.60;99.90
1994;DHT22;998;49.906;10.908;2023-07-29T11:15:19;21.70;99.90
1994;DHT22;998;49.906;10.908;2023-07-29T11:17:48;21.80;99.90
1994;DHT22;998;49.906;10.908;2023-07-29T11:20:17;21.90;99.90
1994;DHT22;998;49.906;10.908;2023-07-29T11:22:45;21.90;99.90
1994;DHT22;998;49.906;10.908;2023-07-29T11:25:14;22.00;99.90
1994;DHT22;998;49.906;10.908;2023-07-29T11:27:41;22.00;99.90
1994;DHT22;998;49.906;10.908;2023-07-29T11:30:10;22.00;99.90
1994;DHT22;998;49.906;10.908;2023-07-29T11:32:38;22.10;99.90
1994;DHT22;998;49.906;10.908;2023-07-29T11:35:07;22.20;99.90
1994;DHT22;998;49.906;10.908;2023-07-29T11:37:37;22.20;99.90
1994;DHT22;998;49.906;10.908;2023-07-29T11:40:05;22.10;99.90
1994;DHT22;998;49.906;10.908;2023-07-29T11:42:34;22.20;99.90
1994;DHT22;998;49.906;10.908;2023-07-29T11:45:02;22.30;99.90
1994;DHT22;998;49.906;10.908;2023-07-29T11:47:30;22.40;99.90
1994;DHT22;998;49.906;10.908;2023-07-29T11:49:59;22.50;99.90
1994;DHT22;998;49.906;10.908;2023-07-29T11:52:28;22.50;99.90
1994;DHT22;998;49.906;10.908;2023-07-29T11:54:57;22.60;99.90
1994;DHT22;998;49.906;10.908;2023-07-29T11:57:25;22.60;99.90
1994;DHT22;998;49.906;10.908;2023-07-29T11:59:53;22.80;99.90
1994;DHT22;998;49.906;10.908;2023-07-29T12:02:21;22.90;99.90
1994;DHT22;998;49.906;10.908;2023-07-29T12:04:50;23.00;99.90
1994;DHT22;998;49.906;10.908;2023-07-29T12:07:18;23.00;99.90
1994;DHT22;998;49.906;10.908;2023-07-29T12:09:46;22.90;99.90
1994;DHT22;998;49.906;10.908;2023-07-29T12:12:15;23.20;99.90
1994;DHT22;998;49.906;10.908;2023-07-29T12:14:44;23.40;99.90
1994;DHT22;998;49.906;10.908;2023-07-29T12:17:13;23.30;99.90
1994;DHT22;998;49.906;10.908;2023-07-29T12:19:42;23.50;99.90
1994;DHT22;998;49.906;10.908;2023-07-29T12:22:10;23.50;99.90
1994;DHT22;998;49.906;10.908;2023-07-29T12:24:38;23.80;99.90
1994;DHT22;998;49.906;10.908;2023-07-29T12:27:10;24.00;99.90
1994;DHT22;998;49.906;10.908;2023-07-29T12:29:42;23.60;99.90
1994;DHT22;998;49.906;10.908;2023-07-29T12:32:10;23.80;99.90
1994;DHT22;998;49.906;10.908;2023-07-29T12:34:38;24.00;99.90
1994;DHT22;998;49.906;10.908;2023-07-29T12:37:06;24.00;99.90
1994;DHT22;998;49.906;10.908;2023-07-29T12:39:35;24.40;99.90
1994;DHT22;998;49.906;10.908;2023-07-29T12:42:06;24.80;99.90
1994;DHT22;998;49.906;10.908;2023-07-29T12:44:34;25.00;99.90
1994;DHT22;998;49.906;10.908;2023-07-29T12:47:04;25.20;99.90
1994;DHT22;998;49.906;10.908;2023-07-29T12:49:32;25.40;99.90
1994;DHT22;998;49.906;10.908;2023-07-29T12:52:00;25.60;99.90
1994;DHT22;998;49.906;10.908;2023-07-29T12:54:28;26.00;99.90
1994;DHT22;998;49.906;10.908;2023-07-29T12:56:55;26.20;99.90
1994;DHT22;998;49.906;10.908;2023-07-29T12:59:22;26.20;99.90
1994;DHT22;998;49.906;10.908;2023-07-29T13:01:50;25.80;99.90
1994;DHT22;998;49.906;10.908;2023-07-29T13:04:19;25.70;99.90
1994;DHT22;998;49.906;10.908;2023-07-29T13:06:46;26.10;99.90
1994;DHT22;998;49.906;10.908;2023-07-29T13:09:13;26.20;99.90
1994;DHT22;998;49.906;10.908;2023-07-29T13:11:40;26.10;99.90
1994;DHT22;998;49.906;10.908;2023-07-29T13:14:08;25.90;99.90
1994;DHT22;998;49.906;10.908;2023-07-29T13:16:35;26.10;99.90
1994;DHT22;998;49.906;10.908;2023-07-29T13:19:02;26.50;99.90
1994;DHT22;998;49.906;10.908;2023-07-29T13:21:31;26.10;99.90
1994;DHT22;998;49.906;10.908;2023-07-29T13:23:58;25.80;99.90
1994;DHT22;998;49.906;10.908;2023-07-29T13:26:26;25.90;99.90
1994;DHT22;998;49.906;10.908;2023-07-29T13:28:53;25.70;99.90
1994;DHT22;998;49.906;10.908;2023-07-29T13:31:21;25.70;99.90
1994;DHT22;998;49.906;10.908;2023-07-29T13:33:48;25.40;99.90
1994;DHT22;998;49.906;10.908;2023-07-29T13:36:16;25.10;99.90
1994;DHT22;998;49.906;10.908;2023-07-29T13:38:45;24.90;99.90
1994;DHT22;998;49.906;10.908;2023-07-29T13:41:12;24.80;99.90
1994;DHT22;998;49.906;10.908;2023-07-29T13:43:39;24.60;99.90
1994;DHT22;998;49.906;10.908;2023-07-29T13:46:07;24.30;99.90
1994;DHT22;998;49.906;10.908;2023-07-29T13:48:34;24.10;99.90
1994;DHT22;998;49.906;10.908;2023-07-29T13:51:02;23.80;99.90
1994;DHT22;998;49.906;10.908;2023-07-29T13:53:29;23.70;99.90
1994;DHT22;998;49.906;10.908;2023-07-29T13:55:58;23.40;99.90
1994;DHT22;998;49.906;10.908;2023-07-29T13:58:25;23.30;99.90
1994;DHT22;998;49.906;10.908;2023-07-29T14:00:52;23.30;99.90
1994;DHT22;998;49.906;10.908;2023-07-29T14:03:20;23.10;99.90
1994;DHT22;998;49.906;10.908;2023-07-29T14:05:47;22.90;99.90
1994;DHT22;998;49.906;10.908;2023-07-29T14:08:15;22.80;99.90
1994;DHT22;998;49.906;10.908;2023-07-29T14:10:42;22.90;99.90
1994;DHT22;998;49.906;10.908;2023-07-29T14:13:11;23.00;99.90
1994;DHT22;998;49.906;10.908;2023-07-29T14:15:38;23.10;99.90
1994;DHT22;998;49.906;10.908;2023-07-29T14:18:06;23.30;99.90
1994;DHT22;998;49.906;10.908;2023-07-29T14:20:34;23.70;99.90
1994;DHT22;998;49.906;10.908;2023-07-29T14:23:01;23.70;99.90
1994;DHT22;998;49.906;10.908;2023-07-29T14:25:29;23.80;99.90
1994;DHT22;998;49.906;10.908;2023-07-29T14:27:56;24.20;99.90
1994;DHT22;998;49.906;10.908;2023-07-29T14:30:25;24.40;99.90
1994;DHT22;998;49.906;10.908;2023-07-29T14:32:52;24.70;99.90
1994;DHT22;998;49.906;10.908;2023-07-29T14:35:19;24.80;99.90
1994;DHT22;998;49.906;10.908;2023-07-29T14:37:47;24.80;99.90
1994;DHT22;998;49.906;10.908;2023-07-29T14:40:14;24.80;99.90
1994;DHT22;998;49.906;10.908;2023-07-29T14:42:42;24.60;99.90
1994;DHT22;998;49.906;10.908;2023-07-29T14:45:10;24.60;99.90
1994;DHT22;998;49.906;10.908;2023-07-29T14:47:39;24.70;99.90
1994;DHT22;998;49.906;10.908;2023-07-29T14:50:06;24.70;99.90
1994;DHT22;998;49.906;10.908;2023-07-29T14:52:34;24.80;99.90
1994;DHT22;998;49.906;10.908;2023-07-29T14:55:01;24.80;99.90
1994;DHT22;998;49.906;10.908;2023-07-29T14:57:29;24.80;99.90
1994;DHT22;998;49.906;10.908;2023-07-29T14:59:57;24.50;99.90
1994;DHT22;998;49.906;10.908;2023-07-29T15:02:24;24.50;99.90
1994;DHT22;998;49.906;10.908;2023-07-29T15:04:53;24.50;99.90
1994;DHT22;998;49.906;10.908;2023-07-29T15:07:20;24.60;99.90
1994;DHT22;998;49.906;10.908;2023-07-29T15:09:48;24.90;99.90
1994;DHT22;998;49.906;10.908;2023-07-29T15:12:15;25.00;99.90
1994;DHT22;998;49.906;10.908;2023-07-29T15:14:42;25.10;99.90
1994;DHT22;998;49.906;10.908;2023-07-29T15:17:10;25.10;99.90
1994;DHT22;998;49.906;10.908;2023-07-29T15:19:37;25.20;99.90
1994;DHT22;998;49.906;10.908;2023-07-29T15:22:06;25.30;99.90
1994;DHT22;998;49.906;10.908;2023-07-29T15:24:33;25.20;99.90
1994;DHT22;998;49.906;10.908;2023-07-29T15:27:01;25.30;99.90
1994;DHT22;998;49.906;10.908;2023-07-29T15:29:28;25.40;99.90
1994;DHT22;998;49.906;10.908;2023-07-29T15:31:55;25.30;99.90
1994;DHT22;998;49.906;10.908;2023-07-29T15:34:23;25.30;99.90
1994;DHT22;998;49.906;10.908;2023-07-29T15:36:51;25.40;99.90
1994;DHT22;998;49.906;10.908;2023-07-29T15:39:20;25.40;99.90
1994;DHT22;998;49.906;10.908;2023-07-29T15:41:47;25.50;99.90
1994;DHT22;998;49.906;10.908;2023-07-29T15:44:15;25.50;99.90
1994;DHT22;998;49.906;10.908;2023-07-29T15:46:42;25.50;99.90
1994;DHT22;998;49.906;10.908;2023-07-29T15:49:11;25.30;99.90
1994;DHT22;998;49.906;10.908;2023-07-29T15:51:38;25.20;99.90
1994;DHT22;998;49.906;10.908;2023-07-29T15:54:05;25.00;99.90
1994;DHT22;998;49.906;10.908;2023-07-29T15:56:34;24.90;99.90
1994;DHT22;998;49.906;10.908;2023-07-29T15:59:02;24.80;99.90
1994;DHT22;998;49.906;10.908;2023-07-29T16:01:29;24.80;99.90
1994;DHT22;998;49.906;10.908;2023-07-29T16:03:57;24.90;99.90
1994;DHT22;998;49.906;10.908;2023-07-29T16:06:25;25.10;99.90
1994;DHT22;998;49.906;10.908;2023-07-29T16:08:53;25.20;99.90